sensor_id;sensor_type;location;lat;lon;timestamp;temperature;humidity
5258;DHT22;2651;51.594;9.928;2022-09-09T00:00:35;15.60;99.90
5258;DHT22;2651;51.594;9.928;2022-09-09T00:04:28;15.60;99.90
5258;DHT22;2651;51.594;9.928;2022-09-09T00:06:45;15.60;99.90
5258;DHT22;2651;51.594;9.928;2022-09-09T00:07:53;15.60;99.90
5258;DHT22;2651;51.594;9.928;2022-09-09T00:09:15;15.60;99.90
5258;DHT22;2651;51.594;9.928;2022-09-09T00:10:39;15.70;99.90
5258;DHT22;2651;51.594;9.928;2022-09-09T00:13:22;15.60;99.90
5258;DHT22;2651;51.594;9.928;2022-09-09T00:14:30;15.70;99.90
5258;DHT22;2651;51.594;9.928;2022-09-09T00:15:56;15.70;99.90
5258;DHT22;2651;51.594;9.928;2022-09-09T00:17:02;15.70;99.90
5258;DHT22;2651;51.594;9.928;2022-09-09T00:18:29;15.80;99.90
5258;DHT22;2651;51.594;9.928;2022-09-09T00:20:11;15.80;99.90
5258;DHT22;2651;51.594;9.928;2022-09-09T00:21:15;15.80;99.90
5258;DHT22;2651;51.594;9.928;2022-09-09T00:22:20;15.80;99.90
5258;DHT22;2651;51.594;9.928;2022-09-09T00:23:24;15.80;99.90
5258;DHT22;2651;51.594;9.928;2022-09-09T00:24:29;15.80;99.90
5258;DHT22;2651;51.594;9.928;2022-09-09T00:25:44;15.80;99.90
5258;DHT22;2651;51.594;9.928;2022-09-09T00:26:57;15.80;99.90
5258;DHT22;2651;51.594;9.928;2022-09-09T00:28:02;15.80;99.90
5258;DHT22;2651;51.594;9.928;2022-09-09T00:30:16;15.80;99.90
5258;DHT22;2651;51.594;9.928;2022-09-09T00:31:26;15.80;99.90
5258;DHT22;2651;51.594;9.928;2022-09-09T00:32:30;15.70;99.90
5258;DHT22;2651;51.594;9.928;2022-09-09T00:33:32;15.70;99.90
5258;DHT22;2651;51.594;9.928;2022-09-09T00:34:33;15.70;99.90
5258;DHT22;2651;51.594;9.928;2022-09-09T00:35:59;15.60;99.90
5258;DHT22;2651;51.594;9.928;2022-09-09T00:37:02;15.60;99.90
5258;DHT22;2651;51.594;9.928;2022-09-09T00:38:15;15.60;99.90
5258;DHT22;2651;51.594;9.928;2022-09-09T00:39:37;15.50;99.90
5258;DHT22;2651;51.594;9.928;2022-09-09T00:43:38;15.50;99.90
5258;DHT22;2651;51.594;9.928;2022-09-09T00:45:13;15.40;99.90
5258;DHT22;2651;51.594;9.928;2022-09-09T00:46:33;15.40;99.90
5258;DHT22;2651;51.594;9.928;2022-09-09T00:47:51;15.40;99.90
5258;DHT22;2651;51.594;9.928;2022-09-09T00:54:00;15.40;99.90
5258;DHT22;2651;51.594;9.928;2022-09-09T00:56:28;15.40;99.90
5258;DHT22;2651;51.594;9.928;2022-09-09T00:57:34;15.40;99.90
5258;DHT22;2651;51.594;9.928;2022-09-09T00:58:36;15.40;99.90
5258;DHT22;2651;51.594;9.928;2022-09-09T00:59:52;15.40;99.90
5258;DHT22;2651;51.594;9.928;2022-09-09T01:01:31;15.40;99.90
5258;DHT22;2651;51.594;9.928;2022-09-09T01:02:30;15.40;99.90
5258;DHT22;2651;51.594;9.928;2022-09-09T01:03:47;15.40;99.90
5258;DHT22;2651;51.594;9.928;2022-09-09T01:04:50;15.40;99.90
5258;DHT22;2651;51.594;9.928;2022-09-09T01:06:30;15.50;99.90
5258;DHT22;2651;51.594;9.928;2022-09-09T01:07:32;15.50;99.90
5258;DHT22;2651;51.594;9.928;2022-09-09T01:10:00;15.40;99.90
5258;DHT22;2651;51.594;9.928;2022-09-09T01:11:02;15.30;99.90
5258;DHT22;2651;51.594;9.928;2022-09-09T01:12:15;15.40;99.90
5258;DHT22;2651;51.594;9.928;2022-09-09T01:13:32;15.30;99.90
5258;DHT22;2651;51.594;9.928;2022-09-09T01:15:39;15.30;99.90
5258;DHT22;2651;51.594;9.928;2022-09-09T01:16:43;15.30;99.90
5258;DHT22;2651;51.594;9.928;2022-09-09T01:18:08;15.30;99.90
5258;DHT22;2651;51.594;9.928;2022-09-09T01:19:19;15.20;99.90
5258;DHT22;2651;51.594;9.928;2022-09-09T01:20:54;15.30;99.90
5258;DHT22;2651;51.594;9.928;2022-09-09T01:27:33;15.20;99.90
5258;DHT22;2651;51.594;9.928;2022-09-09T01:28:37;15.20;99.90
5258;DHT22;2651;51.594;9.928;2022-09-09T01:29:40;15.20;99.90
5258;DHT22;2651;51.594;9.928;2022-09-09T01:30:42;15.20;99.90
5258;DHT22;2651;51.594;9.928;2022-09-09T01:32:58;15.10;99.90
5258;DHT22;2651;51.594;9.928;2022-09-09T01:34:01;15.00;99.90
5258;DHT22;2651;51.594;9.928;2022-09-09T01:35:04;15.00;99.90
5258;DHT22;2651;51.594;9.928;2022-09-09T01:37:12;14.90;99.90
5258;DHT22;2651;51.594;9.928;2022-09-09T01:38:14;14.90;99.90
5258;DHT22;2651;51.594;9.928;2022-09-09T01:39:17;14.90;99.90
5258;DHT22;2651;51.594;9.928;2022-09-09T01:40:19;14.90;99.90
5258;DHT22;2651;51.594;9.928;2022-09-09T01:41:21;14.90;99.90
5258;DHT22;2651;51.594;9.928;2022-09-09T01:42:22;15.00;99.90
5258;DHT22;2651;51.594;9.928;2022-09-09T01:43:25;15.00;99.90
5258;DHT22;2651;51.594;9.928;2022-09-09T01:44:29;15.00;99.90
5258;DHT22;2651;51.594;9.928;2022-09-09T01:45:31;15.00;99.90
5258;DHT22;2651;51.594;9.928;2022-09-09T01:46:32;15.00;99.90
5258;DHT22;2651;51.594;9.928;2022-09-09T01:47:35;14.90;99.90
5258;DHT22;2651;51.594;9.928;2022-09-09T01:48:37;14.90;99.90
5258;DHT22;2651;51.594;9.928;2022-09-09T01:49:38;14.90;99.90
5258;DHT22;2651;51.594;9.928;2022-09-09T01:50:40;14.90;99.90
5258;DHT22;2651;51.594;9.928;2022-09-09T01:51:43;14.90;99.90
5258;DHT22;2651;51.594;9.928;2022-09-09T01:52:50;14.80;99.90
5258;DHT22;2651;51.594;9.928;2022-09-09T01:53:53;14.80;99.90
5258;DHT22;2651;51.594;9.928;2022-09-09T01:54:55;14.80;99.90
5258;DHT22;2651;51.594;9.928;2022-09-09T01:57:33;14.80;99.90
5258;DHT22;2651;51.594;9.928;2022-09-09T02:00:16;14.80;99.90
5258;DHT22;2651;51.594;9.928;2022-09-09T02:02:58;14.90;99.90
5258;DHT22;2651;51.594;9.928;2022-09-09T02:04:07;14.90;99.90
5258;DHT22;2651;51.594;9.928;2022-09-09T02:05:41;15.00;99.90
5258;DHT22;2651;51.594;9.928;2022-09-09T02:06:46;15.10;99.90
5258;DHT22;2651;51.594;9.928;2022-09-09T02:07:52;15.10;99.90
5258;DHT22;2651;51.594;9.928;2022-09-09T02:08:58;15.10;99.90
5258;DHT22;2651;51.594;9.928;2022-09-09T02:10:09;15.10;99.90
5258;DHT22;2651;51.594;9.928;2022-09-09T02:11:21;15.10;99.90
5258;DHT22;2651;51.594;9.928;2022-09-09T02:12:25;15.10;99.90
5258;DHT22;2651;51.594;9.928;2022-09-09T02:13:29;15.10;99.90
5258;DHT22;2651;51.594;9.928;2022-09-09T02:14:41;15.10;99.90
5258;DHT22;2651;51.594;9.928;2022-09-09T02:16:10;15.10;99.90
5258;DHT22;2651;51.594;9.928;2022-09-09T02:17:16;15.20;99.90
5258;DHT22;2651;51.594;9.928;2022-09-09T02:18:27;15.20;99.90
5258;DHT22;2651;51.594;9.928;2022-09-09T02:19:38;15.20;99.90
5258;DHT22;2651;51.594;9.928;2022-09-09T02:20:41;15.20;99.90
5258;DHT22;2651;51.594;9.928;2022-09-09T02:21:45;15.20;99.90
5258;DHT22;2651;51.594;9.928;2022-09-09T02:22:49;15.20;99.90
5258;DHT22;2651;51.594;9.928;2022-09-09T02:23:52;15.20;99.90
5258;DHT22;2651;51.594;9.928;2022-09-09T02:24:56;15.20;99.90
5258;DHT22;2651;51.594;9.928;2022-09-09T02:26:01;15.20;99.90
5258;DHT22;2651;51.594;9.928;2022-09-09T02:27:07;15.10;99.90
5258;DHT22;2651;51.594;9.928;2022-09-09T02:28:12;15.10;99.90
5258;DHT22;2651;51.594;9.928;2022-09-09T02:29:20;15.10;99.90
5258;DHT22;2651;51.594;9.928;2022-09-09T02:30:23;15.10;99.90
5258;DHT22;2651;51.594;9.928;2022-09-09T02:31:25;15.10;99.90
5258;DHT22;2651;51.594;9.928;2022-09-09T02:32:28;15.00;99.90
5258;DHT22;2651;51.594;9.928;2022-09-09T02:33:42;15.00;99.90
5258;DHT22;2651;51.594;9.928;2022-09-09T02:34:48;15.00;99.90
5258;DHT22;2651;51.594;9.928;2022-09-09T02:35:51;15.00;99.90
5258;DHT22;2651;51.594;9.928;2022-09-09T02:36:55;15.00;99.90
5258;DHT22;2651;51.594;9.928;2022-09-09T02:38:01;15.00;99.90
5258;DHT22;2651;51.594;9.928;2022-09-09T02:39:07;15.00;99.90
5258;DHT22;2651;51.594;9.928;2022-09-09T02:40:11;15.00;99.90
5258;DHT22;2651;51.594;9.928;2022-09-09T02:41:14;15.00;99.90
5258;DHT22;2651;51.594;9.928;2022-09-09T02:42:16;15.00;99.90
5258;DHT22;2651;51.594;9.928;2022-09-09T02:43:18;15.00;99.90
5258;DHT22;2651;51.594;9.928;2022-09-09T02:44:20;15.00;99.90
5258;DHT22;2651;51.594;9.928;2022-09-09T02:45:35;15.00;99.90
5258;DHT22;2651;51.594;9.928;2022-09-09T02:48:24;15.10;99.90
5258;DHT22;2651;51.594;9.928;2022-09-09T02:52:06;15.10;99.90
5258;DHT22;2651;51.594;9.928;2022-09-09T02:53:17;15.10;99.90
5258;DHT22;2651;51.594;9.928;2022-09-09T02:54:30;15.10;99.90
5258;DHT22;2651;51.594;9.928;2022-09-09T02:55:43;15.10;99.90
5258;DHT22;2651;51.594;9.928;2022-09-09T02:56:51;15.10;99.90
5258;DHT22;2651;51.594;9.928;2022-09-09T02:57:55;15.10;99.90
5258;DHT22;2651;51.594;9.928;2022-09-09T02:58:58;15.10;99.90
5258;DHT22;2651;51.594;9.928;2022-09-09T03:00:00;15.10;99.90
5258;DHT22;2651;51.594;9.928;2022-09-09T03:01:03;15.10;99.90
5258;DHT22;2651;51.594;9.928;2022-09-09T03:02:05;15.10;99.90
5258;DHT22;2651;51.594;9.928;2022-09-09T03:03:07;15.10;99.90
5258;DHT22;2651;51.594;9.928;2022-09-09T03:04:10;15.10;99.90
5258;DHT22;2651;51.594;9.928;2022-09-09T03:05:12;15.10;99.90
5258;DHT22;2651;51.594;9.928;2022-09-09T03:06:14;15.10;99.90
5258;DHT22;2651;51.594;9.928;2022-09-09T03:07:16;15.10;99.90
5258;DHT22;2651;51.594;9.928;2022-09-09T03:08:18;15.20;99.90
5258;DHT22;2651;51.594;9.928;2022-09-09T03:09:20;15.20;99.90
5258;DHT22;2651;51.594;9.928;2022-09-09T03:10:22;15.30;99.90
5258;DHT22;2651;51.594;9.928;2022-09-09T03:11:23;15.30;99.90
5258;DHT22;2651;51.594;9.928;2022-09-09T03:12:25;15.30;99.90
5258;DHT22;2651;51.594;9.928;2022-09-09T03:13:27;15.30;99.90
5258;DHT22;2651;51.594;9.928;2022-09-09T03:14:28;15.30;99.90
5258;DHT22;2651;51.594;9.928;2022-09-09T03:15:32;15.30;99.90
5258;DHT22;2651;51.594;9.928;2022-09-09T03:16:34;15.40;99.90
5258;DHT22;2651;51.594;9.928;2022-09-09T03:17:36;15.40;99.90
5258;DHT22;2651;51.594;9.928;2022-09-09T03:18:38;15.40;99.90
5258;DHT22;2651;51.594;9.928;2022-09-09T03:19:40;15.40;99.90
5258;DHT22;2651;51.594;9.928;2022-09-09T03:20:42;15.40;99.90
5258;DHT22;2651;51.594;9.928;2022-09-09T03:21:47;15.30;99.90
5258;DHT22;2651;51.594;9.928;2022-09-09T03:22:49;15.40;99.90
5258;DHT22;2651;51.594;9.928;2022-09-09T03:23:51;15.40;99.90
5258;DHT22;2651;51.594;9.928;2022-09-09T03:24:52;15.40;99.90
5258;DHT22;2651;51.594;9.928;2022-09-09T03:25:54;15.40;99.90
5258;DHT22;2651;51.594;9.928;2022-09-09T03:26:58;15.40;99.90
5258;DHT22;2651;51.594;9.928;2022-09-09T03:28:00;15.40;99.90
5258;DHT22;2651;51.594;9.928;2022-09-09T03:29:02;15.40;99.90
5258;DHT22;2651;51.594;9.928;2022-09-09T03:30:04;15.40;99.90
5258;DHT22;2651;51.594;9.928;2022-09-09T03:31:07;15.40;99.90
5258;DHT22;2651;51.594;9.928;2022-09-09T03:32:11;15.40;99.90
5258;DHT22;2651;51.594;9.928;2022-09-09T03:33:13;15.40;99.90
5258;DHT22;2651;51.594;9.928;2022-09-09T03:34:16;15.40;99.90
5258;DHT22;2651;51.594;9.928;2022-09-09T03:35:18;15.40;99.90
5258;DHT22;2651;51.594;9.928;2022-09-09T03:36:20;15.40;99.90
5258;DHT22;2651;51.594;9.928;2022-09-09T03:37:22;15.40;99.90
5258;DHT22;2651;51.594;9.928;2022-09-09T03:38:24;15.40;99.90
5258;DHT22;2651;51.594;9.928;2022-09-09T03:39:26;15.50;99.90
5258;DHT22;2651;51.594;9.928;2022-09-09T03:40:27;15.50;99.90
5258;DHT22;2651;51.594;9.928;2022-09-09T03:41:29;15.50;99.90
5258;DHT22;2651;51.594;9.928;2022-09-09T03:42:31;15.50;99.90
5258;DHT22;2651;51.594;9.928;2022-09-09T03:43:33;15.50;99.90
5258;DHT22;2651;51.594;9.928;2022-09-09T03:44:34;15.50;99.90
5258;DHT22;2651;51.594;9.928;2022-09-09T03:45:36;15.50;99.90
5258;DHT22;2651;51.594;9.928;2022-09-09T03:46:38;15.50;99.90
5258;DHT22;2651;51.594;9.928;2022-09-09T03:47:39;15.50;99.90
5258;DHT22;2651;51.594;9.928;2022-09-09T03:48:41;15.50;99.90
5258;DHT22;2651;51.594;9.928;2022-09-09T03:49:43;15.60;99.90
5258;DHT22;2651;51.594;9.928;2022-09-09T03:50:49;15.60;99.90
5258;DHT22;2651;51.594;9.928;2022-09-09T03:51:51;15.60;99.90
5258;DHT22;2651;51.594;9.928;2022-09-09T03:52:52;15.60;99.90
5258;DHT22;2651;51.594;9.928;2022-09-09T03:53:54;15.60;99.90
5258;DHT22;2651;51.594;9.928;2022-09-09T03:54:59;15.60;99.90
5258;DHT22;2651;51.594;9.928;2022-09-09T03:56:01;15.60;99.90
5258;DHT22;2651;51.594;9.928;2022-09-09T03:57:03;15.60;99.90
5258;DHT22;2651;51.594;9.928;2022-09-09T03:58:05;15.60;99.90
5258;DHT22;2651;51.594;9.928;2022-09-09T03:59:07;15.60;99.90
5258;DHT22;2651;51.594;9.928;2022-09-09T04:00:10;15.50;99.90
5258;DHT22;2651;51.594;9.928;2022-09-09T04:01:13;15.60;99.90
5258;DHT22;2651;51.594;9.928;2022-09-09T04:02:15;15.60;99.90
5258;DHT22;2651;51.594;9.928;2022-09-09T04:03:17;15.60;99.90
5258;DHT22;2651;51.594;9.928;2022-09-09T04:04:18;15.60;99.90
5258;DHT22;2651;51.594;9.928;2022-09-09T04:05:21;15.50;99.90
5258;DHT22;2651;51.594;9.928;2022-09-09T04:06:23;15.50;99.90
5258;DHT22;2651;51.594;9.928;2022-09-09T04:07:25;15.40;99.90
5258;DHT22;2651;51.594;9.928;2022-09-09T04:08:29;15.40;99.90
5258;DHT22;2651;51.594;9.928;2022-09-09T04:09:33;15.40;99.90
5258;DHT22;2651;51.594;9.928;2022-09-09T04:10:36;15.40;99.90
5258;DHT22;2651;51.594;9.928;2022-09-09T04:11:38;15.40;99.90
5258;DHT22;2651;51.594;9.928;2022-09-09T04:12:40;15.40;99.90
5258;DHT22;2651;51.594;9.928;2022-09-09T04:13:41;15.40;99.90
5258;DHT22;2651;51.594;9.928;2022-09-09T04:14:43;15.50;99.90
5258;DHT22;2651;51.594;9.928;2022-09-09T04:15:56;15.40;99.90
5258;DHT22;2651;51.594;9.928;2022-09-09T04:16:58;15.40;99.90
5258;DHT22;2651;51.594;9.928;2022-09-09T04:18:00;15.30;99.90
5258;DHT22;2651;51.594;9.928;2022-09-09T04:19:03;15.30;99.90
5258;DHT22;2651;51.594;9.928;2022-09-09T04:20:05;15.30;99.90
5258;DHT22;2651;51.594;9.928;2022-09-09T04:21:09;15.30;99.90
5258;DHT22;2651;51.594;9.928;2022-09-09T04:22:13;15.30;99.90
5258;DHT22;2651;51.594;9.928;2022-09-09T04:23:15;15.20;99.90
5258;DHT22;2651;51.594;9.928;2022-09-09T04:24:17;15.20;99.90
5258;DHT22;2651;51.594;9.928;2022-09-09T04:25:19;15.20;99.90
5258;DHT22;2651;51.594;9.928;2022-09-09T04:26:20;15.20;99.90
5258;DHT22;2651;51.594;9.928;2022-09-09T04:27:22;15.20;99.90
5258;DHT22;2651;51.594;9.928;2022-09-09T04:28:26;15.20;99.90
5258;DHT22;2651;51.594;9.928;2022-09-09T04:29:28;15.20;99.90
5258;DHT22;2651;51.594;9.928;2022-09-09T04:30:30;15.10;99.90
5258;DHT22;2651;51.594;9.928;2022-09-09T04:31:31;15.10;99.90
5258;DHT22;2651;51.594;9.928;2022-09-09T04:32:34;15.20;99.90
5258;DHT22;2651;51.594;9.928;2022-09-09T04:33:36;15.20;99.90
5258;DHT22;2651;51.594;9.928;2022-09-09T04:34:41;15.10;99.90
5258;DHT22;2651;51.594;9.928;2022-09-09T04:35:47;15.10;99.90
5258;DHT22;2651;51.594;9.928;2022-09-09T04:36:49;15.20;99.90
5258;DHT22;2651;51.594;9.928;2022-09-09T04:37:52;15.20;99.90
5258;DHT22;2651;51.594;9.928;2022-09-09T04:38:54;15.20;99.90
5258;DHT22;2651;51.594;9.928;2022-09-09T04:39:56;15.10;99.90
5258;DHT22;2651;51.594;9.928;2022-09-09T04:40:57;15.10;99.90
5258;DHT22;2651;51.594;9.928;2022-09-09T04:41:59;15.10;99.90
5258;DHT22;2651;51.594;9.928;2022-09-09T04:43:02;15.10;99.90
5258;DHT22;2651;51.594;9.928;2022-09-09T04:44:06;15.20;99.90
5258;DHT22;2651;51.594;9.928;2022-09-09T04:45:08;15.20;99.90
5258;DHT22;2651;51.594;9.928;2022-09-09T04:46:12;15.20;99.90
5258;DHT22;2651;51.594;9.928;2022-09-09T04:47:13;15.30;99.90
5258;DHT22;2651;51.594;9.928;2022-09-09T04:48:15;15.30;99.90
5258;DHT22;2651;51.594;9.928;2022-09-09T04:49:17;15.30;99.90
5258;DHT22;2651;51.594;9.928;2022-09-09T04:50:19;15.30;99.90
5258;DHT22;2651;51.594;9.928;2022-09-09T04:51:21;15.40;99.90
5258;DHT22;2651;51.594;9.928;2022-09-09T04:52:23;15.40;99.90
5258;DHT22;2651;51.594;9.928;2022-09-09T04:53:25;15.40;99.90
5258;DHT22;2651;51.594;9.928;2022-09-09T04:54:27;15.40;99.90
5258;DHT22;2651;51.594;9.928;2022-09-09T04:55:30;15.40;99.90
5258;DHT22;2651;51.594;9.928;2022-09-09T04:56:31;15.40;99.90
5258;DHT22;2651;51.594;9.928;2022-09-09T04:57:34;15.40;99.90
5258;DHT22;2651;51.594;9.928;2022-09-09T04:58:37;15.50;99.90
5258;DHT22;2651;51.594;9.928;2022-09-09T04:59:38;15.50;99.90
5258;DHT22;2651;51.594;9.928;2022-09-09T05:00:40;15.50;99.90
5258;DHT22;2651;51.594;9.928;2022-09-09T05:01:43;15.50;99.90
5258;DHT22;2651;51.594;9.928;2022-09-09T05:02:44;15.50;99.90
5258;DHT22;2651;51.594;9.928;2022-09-09T05:03:46;15.50;99.90
5258;DHT22;2651;51.594;9.928;2022-09-09T05:04:49;15.50;99.90
5258;DHT22;2651;51.594;9.928;2022-09-09T05:05:51;15.50;99.90
5258;DHT22;2651;51.594;9.928;2022-09-09T05:06:53;15.60;99.90
5258;DHT22;2651;51.594;9.928;2022-09-09T05:08:04;15.60;99.90
5258;DHT22;2651;51.594;9.928;2022-09-09T05:09:06;15.60;99.90
5258;DHT22;2651;51.594;9.928;2022-09-09T05:10:08;15.60;99.90
5258;DHT22;2651;51.594;9.928;2022-09-09T05:11:18;15.60;99.90
5258;DHT22;2651;51.594;9.928;2022-09-09T05:12:20;15.60;99.90
5258;DHT22;2651;51.594;9.928;2022-09-09T05:13:22;15.60;99.90
5258;DHT22;2651;51.594;9.928;2022-09-09T05:14:24;15.60;99.90
5258;DHT22;2651;51.594;9.928;2022-09-09T05:15:25;15.50;99.90
5258;DHT22;2651;51.594;9.928;2022-09-09T05:16:27;15.50;99.90
5258;DHT22;2651;51.594;9.928;2022-09-09T05:17:29;15.50;99.90
5258;DHT22;2651;51.594;9.928;2022-09-09T05:18:30;15.50;99.90
5258;DHT22;2651;51.594;9.928;2022-09-09T05:19:32;15.50;99.90
5258;DHT22;2651;51.594;9.928;2022-09-09T05:20:33;15.50;99.90
5258;DHT22;2651;51.594;9.928;2022-09-09T05:21:35;15.50;99.90
5258;DHT22;2651;51.594;9.928;2022-09-09T05:22:36;15.50;99.90
5258;DHT22;2651;51.594;9.928;2022-09-09T05:23:38;15.40;99.90
5258;DHT22;2651;51.594;9.928;2022-09-09T05:24:41;15.50;99.90
5258;DHT22;2651;51.594;9.928;2022-09-09T05:25:42;15.50;99.90
5258;DHT22;2651;51.594;9.928;2022-09-09T05:26:44;15.50;99.90
5258;DHT22;2651;51.594;9.928;2022-09-09T05:27:46;15.50;99.90
5258;DHT22;2651;51.594;9.928;2022-09-09T05:28:48;15.50;99.90
5258;DHT22;2651;51.594;9.928;2022-09-09T05:29:50;15.50;99.90
5258;DHT22;2651;51.594;9.928;2022-09-09T05:30:59;15.50;99.90
5258;DHT22;2651;51.594;9.928;2022-09-09T05:32:02;15.50;99.90
5258;DHT22;2651;51.594;9.928;2022-09-09T05:33:04;15.50;99.90
5258;DHT22;2651;51.594;9.928;2022-09-09T05:34:07;15.50;99.90
5258;DHT22;2651;51.594;9.928;2022-09-09T05:35:09;15.50;99.90
5258;DHT22;2651;51.594;9.928;2022-09-09T05:36:13;15.50;99.90
5258;DHT22;2651;51.594;9.928;2022-09-09T05:37:15;15.50;99.90
5258;DHT22;2651;51.594;9.928;2022-09-09T05:38:18;15.50;99.90
5258;DHT22;2651;51.594;9.928;2022-09-09T05:39:19;15.40;99.90
5258;DHT22;2651;51.594;9.928;2022-09-09T05:40:21;15.40;99.90
5258;DHT22;2651;51.594;9.928;2022-09-09T05:41:23;15.40;99.90
5258;DHT22;2651;51.594;9.928;2022-09-09T05:42:24;15.40;99.90
5258;DHT22;2651;51.594;9.928;2022-09-09T05:43:26;15.40;99.90
5258;DHT22;2651;51.594;9.928;2022-09-09T05:44:28;15.40;99.90
5258;DHT22;2651;51.594;9.928;2022-09-09T05:45:30;15.40;99.90
5258;DHT22;2651;51.594;9.928;2022-09-09T05:46:32;15.40;99.90
5258;DHT22;2651;51.594;9.928;2022-09-09T05:47:34;15.40;99.90
5258;DHT22;2651;51.594;9.928;2022-09-09T05:48:44;15.40;99.90
5258;DHT22;2651;51.594;9.928;2022-09-09T05:49:47;15.40;99.90
5258;DHT22;2651;51.594;9.928;2022-09-09T05:50:53;15.50;99.90
5258;DHT22;2651;51.594;9.928;2022-09-09T05:51:55;15.50;99.90
5258;DHT22;2651;51.594;9.928;2022-09-09T05:52:57;15.60;99.90
5258;DHT22;2651;51.594;9.928;2022-09-09T05:53:59;15.60;99.90
5258;DHT22;2651;51.594;9.928;2022-09-09T05:55:00;15.60;99.90
5258;DHT22;2651;51.594;9.928;2022-09-09T05:56:07;15.70;99.90
5258;DHT22;2651;51.594;9.928;2022-09-09T05:57:11;15.70;99.90
5258;DHT22;2651;51.594;9.928;2022-09-09T05:58:13;15.70;99.90
5258;DHT22;2651;51.594;9.928;2022-09-09T05:59:16;15.80;99.90
5258;DHT22;2651;51.594;9.928;2022-09-09T06:00:18;15.80;99.90
5258;DHT22;2651;51.594;9.928;2022-09-09T06:01:20;15.90;99.90
5258;DHT22;2651;51.594;9.928;2022-09-09T06:02:22;15.90;99.90
5258;DHT22;2651;51.594;9.928;2022-09-09T06:03:24;16.00;99.90
5258;DHT22;2651;51.594;9.928;2022-09-09T06:04:25;16.00;99.90
5258;DHT22;2651;51.594;9.928;2022-09-09T06:05:27;16.00;99.90
5258;DHT22;2651;51.594;9.928;2022-09-09T06:06:36;16.00;99.90
5258;DHT22;2651;51.594;9.928;2022-09-09T06:07:39;16.00;99.90
5258;DHT22;2651;51.594;9.928;2022-09-09T06:08:44;16.00;99.90
5258;DHT22;2651;51.594;9.928;2022-09-09T06:09:46;16.00;99.90
5258;DHT22;2651;51.594;9.928;2022-09-09T06:10:48;16.10;99.90
5258;DHT22;2651;51.594;9.928;2022-09-09T06:11:50;16.00;99.90
5258;DHT22;2651;51.594;9.928;2022-09-09T06:12:53;16.00;99.90
5258;DHT22;2651;51.594;9.928;2022-09-09T06:13:54;16.00;99.90
5258;DHT22;2651;51.594;9.928;2022-09-09T06:14:56;16.00;99.90
5258;DHT22;2651;51.594;9.928;2022-09-09T06:15:58;16.00;99.90
5258;DHT22;2651;51.594;9.928;2022-09-09T06:16:59;16.00;99.90
5258;DHT22;2651;51.594;9.928;2022-09-09T06:18:01;16.00;99.90
5258;DHT22;2651;51.594;9.928;2022-09-09T06:19:03;16.00;99.90
5258;DHT22;2651;51.594;9.928;2022-09-09T06:20:05;16.00;99.90
5258;DHT22;2651;51.594;9.928;2022-09-09T06:21:14;15.90;99.90
5258;DHT22;2651;51.594;9.928;2022-09-09T06:22:16;15.90;99.90
5258;DHT22;2651;51.594;9.928;2022-09-09T06:23:18;15.80;99.90
5258;DHT22;2651;51.594;9.928;2022-09-09T06:24:20;15.80;99.90
5258;DHT22;2651;51.594;9.928;2022-09-09T06:25:22;15.80;99.90
5258;DHT22;2651;51.594;9.928;2022-09-09T06:26:26;15.80;99.90
5258;DHT22;2651;51.594;9.928;2022-09-09T06:27:28;15.90;99.90
5258;DHT22;2651;51.594;9.928;2022-09-09T06:28:30;15.90;99.90
5258;DHT22;2651;51.594;9.928;2022-09-09T06:29:31;15.90;99.90
5258;DHT22;2651;51.594;9.928;2022-09-09T06:30:33;15.90;99.90
5258;DHT22;2651;51.594;9.928;2022-09-09T06:31:36;15.90;99.90
5258;DHT22;2651;51.594;9.928;2022-09-09T06:32:38;15.90;99.90
5258;DHT22;2651;51.594;9.928;2022-09-09T06:33:41;15.90;99.90
5258;DHT22;2651;51.594;9.928;2022-09-09T06:34:43;16.00;99.90
5258;DHT22;2651;51.594;9.928;2022-09-09T06:35:51;16.00;99.90
5258;DHT22;2651;51.594;9.928;2022-09-09T06:36:54;16.10;99.90
5258;DHT22;2651;51.594;9.928;2022-09-09T06:37:57;16.10;99.90
5258;DHT22;2651;51.594;9.928;2022-09-09T06:39:00;16.20;99.90
5258;DHT22;2651;51.594;9.928;2022-09-09T06:40:02;16.20;99.90
5258;DHT22;2651;51.594;9.928;2022-09-09T06:41:04;16.30;99.90
5258;DHT22;2651;51.594;9.928;2022-09-09T06:42:07;16.40;99.90
5258;DHT22;2651;51.594;9.928;2022-09-09T06:43:09;16.50;99.90
5258;DHT22;2651;51.594;9.928;2022-09-09T06:44:11;16.50;99.90
5258;DHT22;2651;51.594;9.928;2022-09-09T06:45:17;16.60;99.90
5258;DHT22;2651;51.594;9.928;2022-09-09T06:46:27;16.60;99.90
5258;DHT22;2651;51.594;9.928;2022-09-09T06:47:29;16.70;99.90
5258;DHT22;2651;51.594;9.928;2022-09-09T06:48:31;16.70;99.90
5258;DHT22;2651;51.594;9.928;2022-09-09T06:49:33;16.70;99.90
5258;DHT22;2651;51.594;9.928;2022-09-09T06:50:36;16.70;99.90
5258;DHT22;2651;51.594;9.928;2022-09-09T06:51:38;16.70;99.90
5258;DHT22;2651;51.594;9.928;2022-09-09T06:52:46;16.80;99.90
5258;DHT22;2651;51.594;9.928;2022-09-09T06:53:53;16.80;99.90
5258;DHT22;2651;51.594;9.928;2022-09-09T06:54:55;16.90;99.90
5258;DHT22;2651;51.594;9.928;2022-09-09T06:57:16;17.00;99.90
5258;DHT22;2651;51.594;9.928;2022-09-09T06:58:40;17.10;99.90
5258;DHT22;2651;51.594;9.928;2022-09-09T06:59:48;17.10;99.90
5258;DHT22;2651;51.594;9.928;2022-09-09T07:00:49;17.10;99.90
5258;DHT22;2651;51.594;9.928;2022-09-09T07:01:51;17.10;99.90
5258;DHT22;2651;51.594;9.928;2022-09-09T07:02:56;17.20;99.90
5258;DHT22;2651;51.594;9.928;2022-09-09T07:03:58;17.20;99.90
5258;DHT22;2651;51.594;9.928;2022-09-09T07:05:00;17.20;99.90
5258;DHT22;2651;51.594;9.928;2022-09-09T07:06:02;17.20;99.90
5258;DHT22;2651;51.594;9.928;2022-09-09T07:07:05;17.30;99.90
5258;DHT22;2651;51.594;9.928;2022-09-09T07:08:07;17.30;99.90
5258;DHT22;2651;51.594;9.928;2022-09-09T07:09:15;17.30;99.90
5258;DHT22;2651;51.594;9.928;2022-09-09T07:10:17;17.30;99.90
5258;DHT22;2651;51.594;9.928;2022-09-09T07:11:20;17.30;99.90
5258;DHT22;2651;51.594;9.928;2022-09-09T07:12:23;17.30;99.90
5258;DHT22;2651;51.594;9.928;2022-09-09T07:13:25;17.40;99.90
5258;DHT22;2651;51.594;9.928;2022-09-09T07:14:27;17.40;99.90
5258;DHT22;2651;51.594;9.928;2022-09-09T07:15:29;17.50;99.90
5258;DHT22;2651;51.594;9.928;2022-09-09T07:16:30;17.50;99.90
5258;DHT22;2651;51.594;9.928;2022-09-09T07:17:35;17.50;99.90
5258;DHT22;2651;51.594;9.928;2022-09-09T07:18:36;17.60;99.90
5258;DHT22;2651;51.594;9.928;2022-09-09T07:19:38;17.60;99.90
5258;DHT22;2651;51.594;9.928;2022-09-09T07:20:40;17.70;99.90
5258;DHT22;2651;51.594;9.928;2022-09-09T07:21:41;17.70;99.90
5258;DHT22;2651;51.594;9.928;2022-09-09T07:22:43;17.80;99.90
5258;DHT22;2651;51.594;9.928;2022-09-09T07:23:45;17.80;99.90
5258;DHT22;2651;51.594;9.928;2022-09-09T07:24:47;17.90;99.90
5258;DHT22;2651;51.594;9.928;2022-09-09T07:25:50;17.90;99.90
5258;DHT22;2651;51.594;9.928;2022-09-09T07:26:54;17.90;99.90
5258;DHT22;2651;51.594;9.928;2022-09-09T07:27:56;17.90;99.90
5258;DHT22;2651;51.594;9.928;2022-09-09T07:28:58;17.90;99.90
5258;DHT22;2651;51.594;9.928;2022-09-09T07:29:59;17.90;99.90
5258;DHT22;2651;51.594;9.928;2022-09-09T07:31:02;17.80;99.90
5258;DHT22;2651;51.594;9.928;2022-09-09T07:32:04;17.90;99.90
5258;DHT22;2651;51.594;9.928;2022-09-09T07:33:06;17.90;99.90
5258;DHT22;2651;51.594;9.928;2022-09-09T07:34:08;18.00;99.90
5258;DHT22;2651;51.594;9.928;2022-09-09T07:35:09;18.00;99.90
5258;DHT22;2651;51.594;9.928;2022-09-09T07:36:16;18.10;99.90
5258;DHT22;2651;51.594;9.928;2022-09-09T07:37:18;18.20;99.90
5258;DHT22;2651;51.594;9.928;2022-09-09T07:38:20;18.20;99.90